sensor_id;sensor_type;location;lat;lon;timestamp;temperature;humidity
71175;DHT22;58876;51.994;4.472;2023-07-08T00:00:25;23.16;48.07
71175;DHT22;58876;51.994;4.472;2023-07-08T00:02:51;23.14;48.07
71175;DHT22;58876;51.994;4.472;2023-07-08T00:05:19;23.11;47.94
71175;DHT22;58876;51.994;4.472;2023-07-08T00:07:46;23.10;48.21
71175;DHT22;58876;51.994;4.472;2023-07-08T00:10:20;23.07;48.21
71175;DHT22;58876;51.994;4.472;2023-07-08T00:12:51;23.04;48.44
71175;DHT22;58876;51.994;4.472;2023-07-08T00:15:24;23.05;48.82
71175;DHT22;58876;51.994;4.472;2023-07-08T00:17:50;23.00;48.80
71175;DHT22;58876;51.994;4.472;2023-07-08T00:22:47;22.87;49.71
71175;DHT22;58876;51.994;4.472;2023-07-08T00:25:18;22.78;49.58
71175;DHT22;58876;51.994;4.472;2023-07-08T00:27:45;22.70;50.09
71175;DHT22;58876;51.994;4.472;2023-07-08T00:30:25;22.67;50.02
71175;DHT22;58876;51.994;4.472;2023-07-08T00:32:52;22.65;50.33
71175;DHT22;58876;51.994;4.472;2023-07-08T00:35:21;22.56;51.16
71175;DHT22;58876;51.994;4.472;2023-07-08T00:37:51;22.50;51.45
71175;DHT22;58876;51.994;4.472;2023-07-08T00:40:20;22.46;51.54
71175;DHT22;58876;51.994;4.472;2023-07-08T00:42:47;22.40;51.67
71175;DHT22;58876;51.994;4.472;2023-07-08T00:48:32;22.25;52.16
71175;DHT22;58876;51.994;4.472;2023-07-08T00:50:58;22.15;52.33
71175;DHT22;58876;51.994;4.472;2023-07-08T00:53:31;22.09;52.85
71175;DHT22;58876;51.994;4.472;2023-07-08T00:56:12;21.98;53.37
71175;DHT22;58876;51.994;4.472;2023-07-08T00:59:03;21.91;53.55
71175;DHT22;58876;51.994;4.472;2023-07-08T01:01:33;21.84;53.97
71175;DHT22;58876;51.994;4.472;2023-07-08T01:04:11;21.73;54.32
71175;DHT22;58876;51.994;4.472;2023-07-08T01:06:40;21.69;54.10
71175;DHT22;58876;51.994;4.472;2023-07-08T01:09:09;21.68;54.51
71175;DHT22;58876;51.994;4.472;2023-07-08T01:11:39;21.62;54.84
71175;DHT22;58876;51.994;4.472;2023-07-08T01:14:08;21.57;54.47
71175;DHT22;58876;51.994;4.472;2023-07-08T01:16:35;21.53;54.66
71175;DHT22;58876;51.994;4.472;2023-07-08T01:19:03;21.47;55.29
71175;DHT22;58876;51.994;4.472;2023-07-08T01:21:38;21.43;54.98
71175;DHT22;58876;51.994;4.472;2023-07-08T01:24:08;21.41;54.99
71175;DHT22;58876;51.994;4.472;2023-07-08T01:26:39;21.36;55.35
71175;DHT22;58876;51.994;4.472;2023-07-08T01:29:06;21.34;55.25
71175;DHT22;58876;51.994;4.472;2023-07-08T01:31:33;21.33;54.90
71175;DHT22;58876;51.994;4.472;2023-07-08T01:33:59;21.27;55.24
71175;DHT22;58876;51.994;4.472;2023-07-08T01:36:29;21.24;55.97
71175;DHT22;58876;51.994;4.472;2023-07-08T01:38:56;21.22;55.10
71175;DHT22;58876;51.994;4.472;2023-07-08T01:41:21;21.13;55.37
71175;DHT22;58876;51.994;4.472;2023-07-08T01:43:47;21.13;55.61
71175;DHT22;58876;51.994;4.472;2023-07-08T01:46:20;21.02;56.44
71175;DHT22;58876;51.994;4.472;2023-07-08T01:48:52;21.00;57.17
71175;DHT22;58876;51.994;4.472;2023-07-08T01:51:18;20.95;56.89
71175;DHT22;58876;51.994;4.472;2023-07-08T01:53:45;20.93;56.69
71175;DHT22;58876;51.994;4.472;2023-07-08T01:56:12;20.86;57.51
71175;DHT22;58876;51.994;4.472;2023-07-08T01:58:38;20.77;56.80
71175;DHT22;58876;51.994;4.472;2023-07-08T02:01:05;20.75;57.64
71175;DHT22;58876;51.994;4.472;2023-07-08T02:03:31;20.69;57.56
71175;DHT22;58876;51.994;4.472;2023-07-08T02:05:57;20.69;58.02
71175;DHT22;58876;51.994;4.472;2023-07-08T02:08:23;20.64;57.42
71175;DHT22;58876;51.994;4.472;2023-07-08T02:10:51;20.58;58.07
71175;DHT22;58876;51.994;4.472;2023-07-08T02:13:18;20.52;57.79
71175;DHT22;58876;51.994;4.472;2023-07-08T02:15:43;20.45;58.99
71175;DHT22;58876;51.994;4.472;2023-07-08T02:18:09;20.41;58.05
71175;DHT22;58876;51.994;4.472;2023-07-08T02:20:34;20.39;58.23
71175;DHT22;58876;51.994;4.472;2023-07-08T02:23:00;20.34;58.67
71175;DHT22;58876;51.994;4.472;2023-07-08T02:25:25;20.32;58.48
71175;DHT22;58876;51.994;4.472;2023-07-08T02:27:52;20.28;58.76
71175;DHT22;58876;51.994;4.472;2023-07-08T02:30:17;20.28;59.22
71175;DHT22;58876;51.994;4.472;2023-07-08T02:32:43;20.22;59.35
71175;DHT22;58876;51.994;4.472;2023-07-08T02:35:14;20.18;59.04
71175;DHT22;58876;51.994;4.472;2023-07-08T02:37:39;20.14;58.94
71175;DHT22;58876;51.994;4.472;2023-07-08T02:40:05;20.11;59.53
71175;DHT22;58876;51.994;4.472;2023-07-08T02:42:31;20.08;59.23
71175;DHT22;58876;51.994;4.472;2023-07-08T02:44:57;20.07;59.03
71175;DHT22;58876;51.994;4.472;2023-07-08T02:47:22;20.04;58.86
71175;DHT22;58876;51.994;4.472;2023-07-08T02:49:48;20.03;59.06
71175;DHT22;58876;51.994;4.472;2023-07-08T02:52:13;20.01;59.48
71175;DHT22;58876;51.994;4.472;2023-07-08T02:54:39;19.98;59.28
71175;DHT22;58876;51.994;4.472;2023-07-08T02:57:04;19.98;59.79
71175;DHT22;58876;51.994;4.472;2023-07-08T02:59:30;19.91;59.30
71175;DHT22;58876;51.994;4.472;2023-07-08T03:01:55;19.88;60.34
71175;DHT22;58876;51.994;4.472;2023-07-08T03:04:21;19.86;60.36
71175;DHT22;58876;51.994;4.472;2023-07-08T03:06:50;19.83;60.01
71175;DHT22;58876;51.994;4.472;2023-07-08T03:09:16;19.79;60.29
71175;DHT22;58876;51.994;4.472;2023-07-08T03:11:41;19.73;60.80
71175;DHT22;58876;51.994;4.472;2023-07-08T03:14:07;19.73;60.68
71175;DHT22;58876;51.994;4.472;2023-07-08T03:16:32;19.71;60.66
71175;DHT22;58876;51.994;4.472;2023-07-08T03:18:58;19.70;60.45
71175;DHT22;58876;51.994;4.472;2023-07-08T03:21:24;19.63;60.29
71175;DHT22;58876;51.994;4.472;2023-07-08T03:23:51;19.63;60.43
71175;DHT22;58876;51.994;4.472;2023-07-08T03:26:23;19.59;60.39
71175;DHT22;58876;51.994;4.472;2023-07-08T03:28:49;19.59;60.21
71175;DHT22;58876;51.994;4.472;2023-07-08T03:31:15;19.55;60.27
71175;DHT22;58876;51.994;4.472;2023-07-08T03:33:40;19.57;60.98
71175;DHT22;58876;51.994;4.472;2023-07-08T03:36:18;19.53;60.77
71175;DHT22;58876;51.994;4.472;2023-07-08T03:38:54;19.52;60.50
71175;DHT22;58876;51.994;4.472;2023-07-08T03:41:20;19.50;60.86
71175;DHT22;58876;51.994;4.472;2023-07-08T03:43:46;19.53;60.75
71175;DHT22;58876;51.994;4.472;2023-07-08T03:46:14;19.55;61.18
71175;DHT22;58876;51.994;4.472;2023-07-08T03:48:40;19.53;60.67
71175;DHT22;58876;51.994;4.472;2023-07-08T03:51:24;19.50;61.67
71175;DHT22;58876;51.994;4.472;2023-07-08T03:53:50;19.52;61.26
71175;DHT22;58876;51.994;4.472;2023-07-08T03:56:16;19.48;61.74
71175;DHT22;58876;51.994;4.472;2023-07-08T03:58:42;19.48;61.92
71175;DHT22;58876;51.994;4.472;2023-07-08T04:01:14;19.46;61.83
71175;DHT22;58876;51.994;4.472;2023-07-08T04:03:41;19.45;61.68
71175;DHT22;58876;51.994;4.472;2023-07-08T04:06:06;19.46;61.80
71175;DHT22;58876;51.994;4.472;2023-07-08T04:08:32;19.46;62.15
71175;DHT22;58876;51.994;4.472;2023-07-08T04:10:57;19.46;62.05
71175;DHT22;58876;51.994;4.472;2023-07-08T04:13:22;19.49;61.72
71175;DHT22;58876;51.994;4.472;2023-07-08T04:15:56;19.48;61.79
71175;DHT22;58876;51.994;4.472;2023-07-08T04:18:22;19.49;62.32
71175;DHT22;58876;51.994;4.472;2023-07-08T04:20:47;19.50;62.04
71175;DHT22;58876;51.994;4.472;2023-07-08T04:23:21;19.52;62.07
71175;DHT22;58876;51.994;4.472;2023-07-08T04:25:49;19.52;61.71
71175;DHT22;58876;51.994;4.472;2023-07-08T04:28:16;19.53;62.05
71175;DHT22;58876;51.994;4.472;2023-07-08T04:30:42;19.55;61.74
71175;DHT22;58876;51.994;4.472;2023-07-08T04:33:13;19.55;61.69
71175;DHT22;58876;51.994;4.472;2023-07-08T04:35:41;19.57;61.86
71175;DHT22;58876;51.994;4.472;2023-07-08T04:38:19;19.57;61.83
71175;DHT22;58876;51.994;4.472;2023-07-08T04:40:46;19.62;61.89
71175;DHT22;58876;51.994;4.472;2023-07-08T04:43:12;19.63;61.63
71175;DHT22;58876;51.994;4.472;2023-07-08T04:45:44;19.65;62.40
71175;DHT22;58876;51.994;4.472;2023-07-08T04:48:17;19.65;62.07
71175;DHT22;58876;51.994;4.472;2023-07-08T04:50:46;19.66;61.84
71175;DHT22;58876;51.994;4.472;2023-07-08T04:53:12;19.69;62.13
71175;DHT22;58876;51.994;4.472;2023-07-08T04:55:43;19.73;61.70
71175;DHT22;58876;51.994;4.472;2023-07-08T04:58:10;19.77;61.51
71175;DHT22;58876;51.994;4.472;2023-07-08T05:00:35;19.80;61.74
71175;DHT22;58876;51.994;4.472;2023-07-08T05:03:01;19.86;62.58
71175;DHT22;58876;51.994;4.472;2023-07-08T05:05:26;19.90;62.61
71175;DHT22;58876;51.994;4.472;2023-07-08T05:07:52;19.91;62.58
71175;DHT22;58876;51.994;4.472;2023-07-08T05:10:19;19.93;62.24
71175;DHT22;58876;51.994;4.472;2023-07-08T05:12:46;19.96;62.08
71175;DHT22;58876;51.994;4.472;2023-07-08T05:15:13;20.00;61.90
71175;DHT22;58876;51.994;4.472;2023-07-08T05:17:39;20.07;61.41
71175;DHT22;58876;51.994;4.472;2023-07-08T05:20:11;20.16;61.82
71175;DHT22;58876;51.994;4.472;2023-07-08T05:22:38;20.20;61.83
71175;DHT22;58876;51.994;4.472;2023-07-08T05:25:03;20.25;60.93
71175;DHT22;58876;51.994;4.472;2023-07-08T05:27:31;20.29;60.92
71175;DHT22;58876;51.994;4.472;2023-07-08T05:30:00;20.37;61.49
71175;DHT22;58876;51.994;4.472;2023-07-08T05:32:25;20.41;61.09
71175;DHT22;58876;51.994;4.472;2023-07-08T05:34:52;20.47;60.34
71175;DHT22;58876;51.994;4.472;2023-07-08T05:37:18;20.47;60.65
71175;DHT22;58876;51.994;4.472;2023-07-08T05:39:46;20.48;59.71
71175;DHT22;58876;51.994;4.472;2023-07-08T05:42:12;20.56;60.27
71175;DHT22;58876;51.994;4.472;2023-07-08T05:44:38;20.65;59.48
71175;DHT22;58876;51.994;4.472;2023-07-08T05:47:03;20.76;59.71
71175;DHT22;58876;51.994;4.472;2023-07-08T05:49:29;20.79;59.60
71175;DHT22;58876;51.994;4.472;2023-07-08T05:51:54;20.82;59.27
71175;DHT22;58876;51.994;4.472;2023-07-08T05:54:20;20.92;58.97
71175;DHT22;58876;51.994;4.472;2023-07-08T05:56:45;20.99;58.35
71175;DHT22;58876;51.994;4.472;2023-07-08T05:59:10;21.02;58.80
71175;DHT22;58876;51.994;4.472;2023-07-08T06:01:37;21.06;58.23
71175;DHT22;58876;51.994;4.472;2023-07-08T06:04:03;21.13;57.78
71175;DHT22;58876;51.994;4.472;2023-07-08T06:06:28;21.19;58.36
71175;DHT22;58876;51.994;4.472;2023-07-08T06:08:54;21.26;58.58
71175;DHT22;58876;51.994;4.472;2023-07-08T06:11:20;21.33;57.19
71175;DHT22;58876;51.994;4.472;2023-07-08T06:13:47;21.34;57.65
71175;DHT22;58876;51.994;4.472;2023-07-08T06:16:13;21.45;57.37
71175;DHT22;58876;51.994;4.472;2023-07-08T06:18:38;21.50;56.60
71175;DHT22;58876;51.994;4.472;2023-07-08T06:21:04;21.62;57.14
71175;DHT22;58876;51.994;4.472;2023-07-08T06:23:29;21.77;56.93
71175;DHT22;58876;51.994;4.472;2023-07-08T06:25:55;21.89;56.15
71175;DHT22;58876;51.994;4.472;2023-07-08T06:28:22;21.91;55.74
71175;DHT22;58876;51.994;4.472;2023-07-08T06:30:47;21.94;55.40
71175;DHT22;58876;51.994;4.472;2023-07-08T06:33:13;22.02;55.57
71175;DHT22;58876;51.994;4.472;2023-07-08T06:35:39;22.05;55.29
71175;DHT22;58876;51.994;4.472;2023-07-08T06:38:06;22.17;55.14
71175;DHT22;58876;51.994;4.472;2023-07-08T06:40:32;22.36;56.06
71175;DHT22;58876;51.994;4.472;2023-07-08T06:42:58;22.57;55.19
71175;DHT22;58876;51.994;4.472;2023-07-08T06:45:24;22.70;55.04
71175;DHT22;58876;51.994;4.472;2023-07-08T06:47:49;22.81;54.70
71175;DHT22;58876;51.994;4.472;2023-07-08T06:50:15;23.04;54.26
71175;DHT22;58876;51.994;4.472;2023-07-08T06:52:40;23.14;53.47
71175;DHT22;58876;51.994;4.472;2023-07-08T06:55:09;23.22;54.61
71175;DHT22;58876;51.994;4.472;2023-07-08T06:57:35;23.37;53.74
71175;DHT22;58876;51.994;4.472;2023-07-08T07:00:01;23.60;53.71
71175;DHT22;58876;51.994;4.472;2023-07-08T07:02:28;23.77;52.83
71175;DHT22;58876;51.994;4.472;2023-07-08T07:04:53;23.99;53.28
71175;DHT22;58876;51.994;4.472;2023-07-08T07:07:20;24.11;53.07
71175;DHT22;58876;51.994;4.472;2023-07-08T07:09:46;24.37;51.11
71175;DHT22;58876;51.994;4.472;2023-07-08T07:12:11;24.44;51.27
71175;DHT22;58876;51.994;4.472;2023-07-08T07:14:37;24.54;50.36
71175;DHT22;58876;51.994;4.472;2023-07-08T07:17:02;24.54;50.87
71175;DHT22;58876;51.994;4.472;2023-07-08T07:19:29;24.62;50.70
71175;DHT22;58876;51.994;4.472;2023-07-08T07:21:54;24.76;50.40
71175;DHT22;58876;51.994;4.472;2023-07-08T07:24:20;25.05;51.47
71175;DHT22;58876;51.994;4.472;2023-07-08T07:26:45;25.13;50.36
71175;DHT22;58876;51.994;4.472;2023-07-08T07:29:11;25.34;50.35
71175;DHT22;58876;51.994;4.472;2023-07-08T07:31:36;25.63;49.04
71175;DHT22;58876;51.994;4.472;2023-07-08T07:34:05;25.74;49.07
71175;DHT22;58876;51.994;4.472;2023-07-08T07:36:30;25.78;48.45
71175;DHT22;58876;51.994;4.472;2023-07-08T07:38:56;25.67;48.76
71175;DHT22;58876;51.994;4.472;2023-07-08T07:41:21;25.89;48.70
71175;DHT22;58876;51.994;4.472;2023-07-08T07:43:46;26.08;48.13
71175;DHT22;58876;51.994;4.472;2023-07-08T07:46:12;26.33;47.70
71175;DHT22;58876;51.994;4.472;2023-07-08T07:48:38;26.56;47.14
71175;DHT22;58876;51.994;4.472;2023-07-08T07:51:04;26.83;47.16
71175;DHT22;58876;51.994;4.472;2023-07-08T07:53:30;27.24;46.93
71175;DHT22;58876;51.994;4.472;2023-07-08T07:56:00;27.99;45.99
71175;DHT22;58876;51.994;4.472;2023-07-08T07:58:26;28.68;44.09
71175;DHT22;58876;51.994;4.472;2023-07-08T08:00:52;29.18;42.78
71175;DHT22;58876;51.994;4.472;2023-07-08T08:03:18;29.77;41.58
71175;DHT22;58876;51.994;4.472;2023-07-08T08:05:44;30.21;40.19
71175;DHT22;58876;51.994;4.472;2023-07-08T08:08:09;30.88;38.86
71175;DHT22;58876;51.994;4.472;2023-07-08T08:10:35;31.48;37.73
71175;DHT22;58876;51.994;4.472;2023-07-08T08:13:02;31.31;38.65
71175;DHT22;58876;51.994;4.472;2023-07-08T08:15:28;31.69;38.65
71175;DHT22;58876;51.994;4.472;2023-07-08T08:17:54;32.32;36.97
71175;DHT22;58876;51.994;4.472;2023-07-08T08:20:21;32.33;36.63
71175;DHT22;58876;51.994;4.472;2023-07-08T08:22:47;32.60;37.11
71175;DHT22;58876;51.994;4.472;2023-07-08T08:25:14;32.68;36.15
71175;DHT22;58876;51.994;4.472;2023-07-08T08:27:40;32.92;35.32
71175;DHT22;58876;51.994;4.472;2023-07-08T08:30:06;33.23;36.47
71175;DHT22;58876;51.994;4.472;2023-07-08T08:32:32;33.50;35.48
71175;DHT22;58876;51.994;4.472;2023-07-08T08:34:57;33.49;36.09
71175;DHT22;58876;51.994;4.472;2023-07-08T08:37:23;33.87;35.26
71175;DHT22;58876;51.994;4.472;2023-07-08T08:39:48;34.18;33.76
71175;DHT22;58876;51.994;4.472;2023-07-08T08:42:30;34.06;35.57
71175;DHT22;58876;51.994;4.472;2023-07-08T08:45:00;33.58;34.64
71175;DHT22;58876;51.994;4.472;2023-07-08T08:47:31;33.41;36.05
71175;DHT22;58876;51.994;4.472;2023-07-08T08:52:46;33.80;34.67
71175;DHT22;58876;51.994;4.472;2023-07-08T08:55:13;33.60;34.74
71175;DHT22;58876;51.994;4.472;2023-07-08T08:57:59;33.62;35.90
71175;DHT22;58876;51.994;4.472;2023-07-08T09:03:16;34.17;34.55
71175;DHT22;58876;51.994;4.472;2023-07-08T09:05:45;34.24;34.47
71175;DHT22;58876;51.994;4.472;2023-07-08T09:08:31;34.36;35.41
71175;DHT22;58876;51.994;4.472;2023-07-08T09:13:32;34.36;33.90
71175;DHT22;58876;51.994;4.472;2023-07-08T09:16:06;34.47;34.73
71175;DHT22;58876;51.994;4.472;2023-07-08T09:21:28;34.94;34.62
71175;DHT22;58876;51.994;4.472;2023-07-08T09:24:01;34.85;34.62
71175;DHT22;58876;51.994;4.472;2023-07-08T09:26:30;34.76;34.15
71175;DHT22;58876;51.994;4.472;2023-07-08T09:28:57;34.68;33.61
71175;DHT22;58876;51.994;4.472;2023-07-08T09:31:29;34.61;33.18
71175;DHT22;58876;51.994;4.472;2023-07-08T09:34:11;34.10;35.11
71175;DHT22;58876;51.994;4.472;2023-07-08T09:36:42;34.07;34.87
71175;DHT22;58876;51.994;4.472;2023-07-08T09:39:14;34.17;34.89
71175;DHT22;58876;51.994;4.472;2023-07-08T09:41:42;34.36;34.78
71175;DHT22;58876;51.994;4.472;2023-07-08T09:44:20;34.45;35.10
71175;DHT22;58876;51.994;4.472;2023-07-08T09:46:48;34.34;35.46
71175;DHT22;58876;51.994;4.472;2023-07-08T09:51:50;34.10;36.40
71175;DHT22;58876;51.994;4.472;2023-07-08T09:54:18;34.31;36.12
71175;DHT22;58876;51.994;4.472;2023-07-08T09:56:51;34.37;34.66
71175;DHT22;58876;51.994;4.472;2023-07-08T09:59:22;34.16;34.89
71175;DHT22;58876;51.994;4.472;2023-07-08T10:01:49;33.93;36.15
71175;DHT22;58876;51.994;4.472;2023-07-08T10:04:14;33.63;35.81
71175;DHT22;58876;51.994;4.472;2023-07-08T10:06:43;33.60;36.93
71175;DHT22;58876;51.994;4.472;2023-07-08T10:09:13;33.68;35.11
71175;DHT22;58876;51.994;4.472;2023-07-08T10:11:52;33.48;37.28
71175;DHT22;58876;51.994;4.472;2023-07-08T10:14:40;33.42;35.51
71175;DHT22;58876;51.994;4.472;2023-07-08T10:17:15;33.38;37.64
71175;DHT22;58876;51.994;4.472;2023-07-08T10:19:41;33.56;38.23
71175;DHT22;58876;51.994;4.472;2023-07-08T10:22:22;33.90;38.17
71175;DHT22;58876;51.994;4.472;2023-07-08T10:25:35;33.96;36.23
71175;DHT22;58876;51.994;4.472;2023-07-08T10:28:31;33.99;37.24
71175;DHT22;58876;51.994;4.472;2023-07-08T10:34:13;33.21;37.27
71175;DHT22;58876;51.994;4.472;2023-07-08T10:37:01;33.26;39.19
71175;DHT22;58876;51.994;4.472;2023-07-08T10:42:52;33.38;38.18
71175;DHT22;58876;51.994;4.472;2023-07-08T10:54:17;33.83;38.00
71175;DHT22;58876;51.994;4.472;2023-07-08T11:08:26;34.45;35.49
71175;DHT22;58876;51.994;4.472;2023-07-08T11:10:56;34.43;35.35
71175;DHT22;58876;51.994;4.472;2023-07-08T11:13:28;34.51;34.08
71175;DHT22;58876;51.994;4.472;2023-07-08T11:16:13;34.44;37.65
71175;DHT22;58876;51.994;4.472;2023-07-08T11:24:18;34.01;36.87
71175;DHT22;58876;51.994;4.472;2023-07-08T11:26:58;34.11;36.26
71175;DHT22;58876;51.994;4.472;2023-07-08T11:29:37;34.44;37.68
71175;DHT22;58876;51.994;4.472;2023-07-08T11:32:10;34.69;34.51
71175;DHT22;58876;51.994;4.472;2023-07-08T11:34:40;34.76;36.65
71175;DHT22;58876;51.994;4.472;2023-07-08T11:37:11;34.95;37.05
71175;DHT22;58876;51.994;4.472;2023-07-08T11:39:43;34.91;35.66
71175;DHT22;58876;51.994;4.472;2023-07-08T11:44:48;34.76;35.35
71175;DHT22;58876;51.994;4.472;2023-07-08T11:47:38;34.94;34.22
71175;DHT22;58876;51.994;4.472;2023-07-08T11:53:07;35.60;34.25
71175;DHT22;58876;51.994;4.472;2023-07-08T11:55:55;35.74;32.90
71175;DHT22;58876;51.994;4.472;2023-07-08T11:58:27;35.94;35.19
71175;DHT22;58876;51.994;4.472;2023-07-08T12:01:05;35.85;32.96
71175;DHT22;58876;51.994;4.472;2023-07-08T12:09:13;35.80;33.85
71175;DHT22;58876;51.994;4.472;2023-07-08T12:11:43;35.80;32.73
71175;DHT22;58876;51.994;4.472;2023-07-08T12:14:10;35.72;33.89
71175;DHT22;58876;51.994;4.472;2023-07-08T12:16:36;35.80;33.67
71175;DHT22;58876;51.994;4.472;2023-07-08T12:19:04;35.84;34.79
71175;DHT22;58876;51.994;4.472;2023-07-08T12:21:36;35.94;32.34
71175;DHT22;58876;51.994;4.472;2023-07-08T12:24:06;36.06;32.18
71175;DHT22;58876;51.994;4.472;2023-07-08T12:26:33;35.93;32.59
71175;DHT22;58876;51.994;4.472;2023-07-08T12:28:59;35.85;33.83
71175;DHT22;58876;51.994;4.472;2023-07-08T12:31:25;35.87;31.37
71175;DHT22;58876;51.994;4.472;2023-07-08T12:33:51;35.83;33.39
71175;DHT22;58876;51.994;4.472;2023-07-08T12:36:22;35.84;33.83
71175;DHT22;58876;51.994;4.472;2023-07-08T12:38:53;36.00;32.77
71175;DHT22;58876;51.994;4.472;2023-07-08T12:41:27;35.94;35.41
71175;DHT22;58876;51.994;4.472;2023-07-08T12:43:53;36.12;33.34
71175;DHT22;58876;51.994;4.472;2023-07-08T12:46:21;36.41;32.64
71175;DHT22;58876;51.994;4.472;2023-07-08T12:48:47;36.38;33.02
71175;DHT22;58876;51.994;4.472;2023-07-08T12:51:18;36.52;32.06
71175;DHT22;58876;51.994;4.472;2023-07-08T12:53:47;36.73;34.09
71175;DHT22;58876;51.994;4.472;2023-07-08T12:56:14;36.80;30.58
71175;DHT22;58876;51.994;4.472;2023-07-08T12:58:46;36.48;30.77
71175;DHT22;58876;51.994;4.472;2023-07-08T13:01:20;36.41;31.83
71175;DHT22;58876;51.994;4.472;2023-07-08T13:03:51;36.62;32.79
71175;DHT22;58876;51.994;4.472;2023-07-08T13:06:21;37.07;31.95
71175;DHT22;58876;51.994;4.472;2023-07-08T13:08:49;37.45;31.71
71175;DHT22;58876;51.994;4.472;2023-07-08T13:11:16;37.60;30.32
71175;DHT22;58876;51.994;4.472;2023-07-08T13:14:00;37.68;31.58
71175;DHT22;58876;51.994;4.472;2023-07-08T13:16:34;37.41;30.39
71175;DHT22;58876;51.994;4.472;2023-07-08T13:19:00;37.53;31.26
71175;DHT22;58876;51.994;4.472;2023-07-08T13:21:26;37.26;30.01
71175;DHT22;58876;51.994;4.472;2023-07-08T13:23:54;37.37;31.01
71175;DHT22;58876;51.994;4.472;2023-07-08T13:26:23;37.48;30.57
71175;DHT22;58876;51.994;4.472;2023-07-08T13:28:50;37.74;31.52
71175;DHT22;58876;51.994;4.472;2023-07-08T13:31:24;37.93;30.59
71175;DHT22;58876;51.994;4.472;2023-07-08T13:33:52;38.05;30.24
71175;DHT22;58876;51.994;4.472;2023-07-08T13:36:21;38.35;29.86
71175;DHT22;58876;51.994;4.472;2023-07-08T13:38:48;38.59;30.09
71175;DHT22;58876;51.994;4.472;2023-07-08T13:41:21;38.22;30.69
71175;DHT22;58876;51.994;4.472;2023-07-08T13:43:48;38.13;28.94
71175;DHT22;58876;51.994;4.472;2023-07-08T13:46:37;38.12;28.85
71175;DHT22;58876;51.994;4.472;2023-07-08T13:51:37;38.45;29.27
71175;DHT22;58876;51.994;4.472;2023-07-08T13:54:23;38.66;30.09
71175;DHT22;58876;51.994;4.472;2023-07-08T13:56:51;38.97;29.86
71175;DHT22;58876;51.994;4.472;2023-07-08T13:59:24;38.83;30.89
71175;DHT22;58876;51.994;4.472;2023-07-08T14:01:53;38.50;28.21
71175;DHT22;58876;51.994;4.472;2023-07-08T14:04:26;38.68;29.92
71175;DHT22;58876;51.994;4.472;2023-07-08T14:06:53;38.81;29.55
71175;DHT22;58876;51.994;4.472;2023-07-08T14:09:21;38.59;29.33
71175;DHT22;58876;51.994;4.472;2023-07-08T14:11:49;38.52;30.01
71175;DHT22;58876;51.994;4.472;2023-07-08T14:14:16;39.14;30.40
71175;DHT22;58876;51.994;4.472;2023-07-08T14:16:46;39.59;27.88
71175;DHT22;58876;51.994;4.472;2023-07-08T14:19:23;39.66;26.73
71175;DHT22;58876;51.994;4.472;2023-07-08T14:22:00;39.34;28.41
71175;DHT22;58876;51.994;4.472;2023-07-08T14:24:26;39.26;28.37
71175;DHT22;58876;51.994;4.472;2023-07-08T14:26:53;39.07;27.22
71175;DHT22;58876;51.994;4.472;2023-07-08T14:29:19;38.97;28.08
71175;DHT22;58876;51.994;4.472;2023-07-08T14:31:44;38.93;30.26
71175;DHT22;58876;51.994;4.472;2023-07-08T14:34:22;38.60;28.42
71175;DHT22;58876;51.994;4.472;2023-07-08T14:36:48;37.96;27.63
71175;DHT22;58876;51.994;4.472;2023-07-08T14:39:16;37.58;30.59
71175;DHT22;58876;51.994;4.472;2023-07-08T14:41:47;37.38;30.78
71175;DHT22;58876;51.994;4.472;2023-07-08T14:44:39;37.11;31.24
71175;DHT22;58876;51.994;4.472;2023-07-08T14:47:13;37.23;31.39
71175;DHT22;58876;51.994;4.472;2023-07-08T14:49:39;37.19;31.27
71175;DHT22;58876;51.994;4.472;2023-07-08T14:52:06;37.17;28.95
71175;DHT22;58876;51.994;4.472;2023-07-08T14:54:31;37.13;33.60
71175;DHT22;58876;51.994;4.472;2023-07-08T14:56:57;37.06;31.08
71175;DHT22;58876;51.994;4.472;2023-07-08T14:59:27;36.96;28.93
71175;DHT22;58876;51.994;4.472;2023-07-08T15:01:57;36.86;29.75
71175;DHT22;58876;51.994;4.472;2023-07-08T15:04:24;36.89;32.35
71175;DHT22;58876;51.994;4.472;2023-07-08T15:06:52;36.92;32.43
71175;DHT22;58876;51.994;4.472;2023-07-08T15:09:18;36.94;30.98
71175;DHT22;58876;51.994;4.472;2023-07-08T15:11:44;36.82;31.59
71175;DHT22;58876;51.994;4.472;2023-07-08T15:14:20;36.83;30.84
71175;DHT22;58876;51.994;4.472;2023-07-08T15:16:46;36.78;31.20
71175;DHT22;58876;51.994;4.472;2023-07-08T15:19:12;36.73;31.80
71175;DHT22;58876;51.994;4.472;2023-07-08T15:21:40;36.78;31.71
71175;DHT22;58876;51.994;4.472;2023-07-08T15:24:12;36.84;32.36
71175;DHT22;58876;51.994;4.472;2023-07-08T15:26:46;36.92;32.52
71175;DHT22;58876;51.994;4.472;2023-07-08T15:29:24;37.13;32.91
71175;DHT22;58876;51.994;4.472;2023-07-08T15:31:54;37.23;30.58
71175;DHT22;58876;51.994;4.472;2023-07-08T15:34:35;37.35;32.36
71175;DHT22;58876;51.994;4.472;2023-07-08T15:37:01;37.13;30.73
71175;DHT22;58876;51.994;4.472;2023-07-08T15:39:27;37.04;32.67
71175;DHT22;58876;51.994;4.472;2023-07-08T15:42:02;37.07;33.73
71175;DHT22;58876;51.994;4.472;2023-07-08T15:44:37;36.94;32.14
71175;DHT22;58876;51.994;4.472;2023-07-08T15:47:12;36.75;32.83
71175;DHT22;58876;51.994;4.472;2023-07-08T15:49:38;36.72;31.76
71175;DHT22;58876;51.994;4.472;2023-07-08T15:52:04;36.78;31.57
71175;DHT22;58876;51.994;4.472;2023-07-08T15:54:29;36.63;30.97
71175;DHT22;58876;51.994;4.472;2023-07-08T15:56:57;36.56;31.47
71175;DHT22;58876;51.994;4.472;2023-07-08T15:59:29;36.59;31.09
71175;DHT22;58876;51.994;4.472;2023-07-08T16:02:04;36.43;32.08
71175;DHT22;58876;51.994;4.472;2023-07-08T16:04:36;36.31;33.18
71175;DHT22;58876;51.994;4.472;2023-07-08T16:07:01;36.38;33.59
71175;DHT22;58876;51.994;4.472;2023-07-08T16:09:27;36.33;33.84
71175;DHT22;58876;51.994;4.472;2023-07-08T16:12:00;36.45;33.35
71175;DHT22;58876;51.994;4.472;2023-07-08T16:14:25;36.53;32.23
71175;DHT22;58876;51.994;4.472;2023-07-08T16:16:51;36.78;31.95
71175;DHT22;58876;51.994;4.472;2023-07-08T16:19:16;36.97;32.42
71175;DHT22;58876;51.994;4.472;2023-07-08T16:21:42;37.16;32.29
71175;DHT22;58876;51.994;4.472;2023-07-08T16:24:08;36.99;32.17
71175;DHT22;58876;51.994;4.472;2023-07-08T16:26:34;36.39;35.22
71175;DHT22;58876;51.994;4.472;2023-07-08T16:29:01;36.24;35.40
71175;DHT22;58876;51.994;4.472;2023-07-08T16:31:27;35.73;36.19
71175;DHT22;58876;51.994;4.472;2023-07-08T16:33:53;34.84;37.14
71175;DHT22;58876;51.994;4.472;2023-07-08T16:36:25;34.55;38.08
71175;DHT22;58876;51.994;4.472;2023-07-08T16:38:52;34.34;38.91
71175;DHT22;58876;51.994;4.472;2023-07-08T16:41:20;34.06;38.91
71175;DHT22;58876;51.994;4.472;2023-07-08T16:43:47;33.97;38.96
71175;DHT22;58876;51.994;4.472;2023-07-08T16:46:16;33.83;39.96